<?xml version="1.0" encoding="utf-8"?>
<gpx xmlns:xsi="http://www.w3.org/2001/XMLSchema-instance" xmlns:xsd="http://www.w3.org/2001/XMLSchema" version="1.1" creator="Shapelink.com" xmlns="http://www.topografix.com/GPX/1/1" xmlns:gpxtpx="http://www.garmin.com/xmlschemas/TrackPointExtension/v1">
  <metadata>
    <name>Løping 8.40 km, 2019-04-16</name>
    <desc></desc>
    <author><name>Stefan Östlund</name></author> 
    <time>2019-04-16T11:40:52Z</time>
  </metadata>
  <trk>
    <name>Løping 8.40 km, 2019-04-16</name>
    <trkseg>
      <trkpt lat="59.982202332761" lon="15.792370395591">
        <ele>98.4</ele>
        <time>2019-04-16T11:40:52Z</time>
      </trkpt>
      <trkpt lat="59.982136870122" lon="15.792450610374">
        <ele>98</ele>
        <time>2019-04-16T11:40:56Z</time>
      </trkpt>
      <trkpt lat="59.9821169212" lon="15.792470475477">
        <ele>97.2</ele>
        <time>2019-04-16T11:40:57Z</time>
      </trkpt>
      <trkpt lat="59.981991025062" lon="15.792632246147">
        <ele>97.6</ele>
        <time>2019-04-16T11:41:03Z</time>
      </trkpt>
      <trkpt lat="59.981945259888" lon="15.792691170904">
        <ele>98.2</ele>
        <time>2019-04-16T11:41:05Z</time>
      </trkpt>
      <trkpt lat="59.981858004309" lon="15.79281136735">
        <ele>99.4</ele>
        <time>2019-04-16T11:41:09Z</time>
      </trkpt>
      <trkpt lat="59.981742166451" lon="15.793008425819">
        <ele>98.6</ele>
        <time>2019-04-16T11:41:15Z</time>
      </trkpt>
      <trkpt lat="59.981722385167" lon="15.793039019754">
        <ele>98.4</ele>
        <time>2019-04-16T11:41:16Z</time>
      </trkpt>
      <trkpt lat="59.981624233118" lon="15.793277568628">
        <ele>98</ele>
        <time>2019-04-16T11:41:22Z</time>
      </trkpt>
      <trkpt lat="59.981600260884" lon="15.793576215725">
        <ele>98.2</ele>
        <time>2019-04-16T11:41:28Z</time>
      </trkpt>
      <trkpt lat="59.981641751289" lon="15.793831109304">
        <ele>98</ele>
        <time>2019-04-16T11:41:34Z</time>
      </trkpt>
      <trkpt lat="59.981666142618" lon="15.793905959671">
        <ele>98.4</ele>
        <time>2019-04-16T11:41:36Z</time>
      </trkpt>
      <trkpt lat="59.981717523665" lon="15.794048284333">
        <ele>99.6</ele>
        <time>2019-04-16T11:41:40Z</time>
      </trkpt>
      <trkpt lat="59.981795475335" lon="15.794281636429">
        <ele>99.8</ele>
        <time>2019-04-16T11:41:46Z</time>
      </trkpt>
      <trkpt lat="59.981886251312" lon="15.794487663531">
        <ele>100</ele>
        <time>2019-04-16T11:41:52Z</time>
      </trkpt>
      <trkpt lat="59.981970740864" lon="15.794691343701">
        <ele>100</ele>
        <time>2019-04-16T11:41:58Z</time>
      </trkpt>
      <trkpt lat="59.982072413311" lon="15.794929389661">
        <ele>100.2</ele>
        <time>2019-04-16T11:42:04Z</time>
      </trkpt>
      <trkpt lat="59.982131338068" lon="15.795055285799">
        <ele>100.8</ele>
        <time>2019-04-16T11:42:07Z</time>
      </trkpt>
      <trkpt lat="59.982151873723" lon="15.795091914702">
        <ele>100.6</ele>
        <time>2019-04-16T11:42:08Z</time>
      </trkpt>
      <trkpt lat="59.982258491491" lon="15.795328200463">
        <ele>101</ele>
        <time>2019-04-16T11:42:14Z</time>
      </trkpt>
      <trkpt lat="59.982371898598" lon="15.79553799942">
        <ele>101.4</ele>
        <time>2019-04-16T11:42:20Z</time>
      </trkpt>
      <trkpt lat="59.98247399014" lon="15.795765568005">
        <ele>101.4</ele>
        <time>2019-04-16T11:42:26Z</time>
      </trkpt>
      <trkpt lat="59.9825946895" lon="15.795978132989">
        <ele>101.2</ele>
        <time>2019-04-16T11:42:32Z</time>
      </trkpt>
      <trkpt lat="59.982733242307" lon="15.796165216997">
        <ele>100.8</ele>
        <time>2019-04-16T11:42:38Z</time>
      </trkpt>
      <trkpt lat="59.982876488978" lon="15.796357330145">
        <ele>101</ele>
        <time>2019-04-16T11:42:44Z</time>
      </trkpt>
      <trkpt lat="59.983009342093" lon="15.796545587619">
        <ele>99.8</ele>
        <time>2019-04-16T11:42:50Z</time>
      </trkpt>
      <trkpt lat="59.983078408949" lon="15.796638710528">
        <ele>99.6</ele>
        <time>2019-04-16T11:42:53Z</time>
      </trkpt>
      <trkpt lat="59.983174884618" lon="15.79675421311">
        <ele>98.4</ele>
        <time>2019-04-16T11:42:57Z</time>
      </trkpt>
      <trkpt lat="59.983307234819" lon="15.796938950186">
        <ele>97.6</ele>
        <time>2019-04-16T11:43:03Z</time>
      </trkpt>
      <trkpt lat="59.983327854293" lon="15.796975411451">
        <ele>97.4</ele>
        <time>2019-04-16T11:43:04Z</time>
      </trkpt>
      <trkpt lat="59.983441680495" lon="15.797115221543">
        <ele>96.2</ele>
        <time>2019-04-16T11:43:09Z</time>
      </trkpt>
      <trkpt lat="59.983571013212" lon="15.797287218131">
        <ele>96</ele>
        <time>2019-04-16T11:43:15Z</time>
      </trkpt>
      <trkpt lat="59.983684587957" lon="15.797417305219">
        <ele>95.2</ele>
        <time>2019-04-16T11:43:20Z</time>
      </trkpt>
      <trkpt lat="59.983816099968" lon="15.797568430876">
        <ele>95.2</ele>
        <time>2019-04-16T11:43:26Z</time>
      </trkpt>
      <trkpt lat="59.983941828468" lon="15.79773908636">
        <ele>94.6</ele>
        <time>2019-04-16T11:43:32Z</time>
      </trkpt>
      <trkpt lat="59.98405900743" lon="15.797847548146">
        <ele>94</ele>
        <time>2019-04-16T11:43:37Z</time>
      </trkpt>
      <trkpt lat="59.984204265757" lon="15.797961122891">
        <ele>93.8</ele>
        <time>2019-04-16T11:43:43Z</time>
      </trkpt>
      <trkpt lat="59.984356648699" lon="15.797947544213">
        <ele>93.2</ele>
        <time>2019-04-16T11:43:49Z</time>
      </trkpt>
      <trkpt lat="59.984461506268" lon="15.797710001167">
        <ele>93.2</ele>
        <time>2019-04-16T11:43:55Z</time>
      </trkpt>
      <trkpt lat="59.984542894517" lon="15.797445887498">
        <ele>93.4</ele>
        <time>2019-04-16T11:44:01Z</time>
      </trkpt>
      <trkpt lat="59.984619840359" lon="15.797175571223">
        <ele>94</ele>
        <time>2019-04-16T11:44:07Z</time>
      </trkpt>
      <trkpt lat="59.984689913043" lon="15.796891760089">
        <ele>94.6</ele>
        <time>2019-04-16T11:44:13Z</time>
      </trkpt>
      <trkpt lat="59.984788651825" lon="15.796629071343">
        <ele>95</ele>
        <time>2019-04-16T11:44:19Z</time>
      </trkpt>
      <trkpt lat="59.984886384779" lon="15.796582635617">
        <ele>95</ele>
        <time>2019-04-16T11:44:23Z</time>
      </trkpt>
      <trkpt lat="59.98504723344" lon="15.796510216001">
        <ele>95.4</ele>
        <time>2019-04-16T11:44:29Z</time>
      </trkpt>
      <trkpt lat="59.985177236709" lon="15.796380045094">
        <ele>95</ele>
        <time>2019-04-16T11:44:35Z</time>
      </trkpt>
      <trkpt lat="59.985311347109" lon="15.796217100958">
        <ele>94.8</ele>
        <time>2019-04-16T11:44:41Z</time>
      </trkpt>
      <trkpt lat="59.985449145545" lon="15.796060527066">
        <ele>95</ele>
        <time>2019-04-16T11:44:47Z</time>
      </trkpt>
      <trkpt lat="59.985599265374" lon="15.795916777481">
        <ele>95</ele>
        <time>2019-04-16T11:44:53Z</time>
      </trkpt>
      <trkpt lat="59.985722227847" lon="15.79573078312">
        <ele>95.2</ele>
        <time>2019-04-16T11:44:59Z</time>
      </trkpt>
      <trkpt lat="59.985867989088" lon="15.795610838131">
        <ele>95.4</ele>
        <time>2019-04-16T11:45:05Z</time>
      </trkpt>
      <trkpt lat="59.986015594347" lon="15.795480583405">
        <ele>95.6</ele>
        <time>2019-04-16T11:45:11Z</time>
      </trkpt>
      <trkpt lat="59.986174263714" lon="15.795377821311">
        <ele>96.2</ele>
        <time>2019-04-16T11:45:17Z</time>
      </trkpt>
      <trkpt lat="59.986324215905" lon="15.795266928774">
        <ele>96.4</ele>
        <time>2019-04-16T11:45:23Z</time>
      </trkpt>
      <trkpt lat="59.986479364874" lon="15.795197275185">
        <ele>96.8</ele>
        <time>2019-04-16T11:45:29Z</time>
      </trkpt>
      <trkpt lat="59.986623952649" lon="15.795122592456">
        <ele>97.2</ele>
        <time>2019-04-16T11:45:35Z</time>
      </trkpt>
      <trkpt lat="59.986672232393" lon="15.795103817">
        <ele>97.4</ele>
        <time>2019-04-16T11:45:37Z</time>
      </trkpt>
      <trkpt lat="59.986826459353" lon="15.795043718777">
        <ele>97.8</ele>
        <time>2019-04-16T11:45:43Z</time>
      </trkpt>
      <trkpt lat="59.986981859779" lon="15.795152348201">
        <ele>97.4</ele>
        <time>2019-04-16T11:45:49Z</time>
      </trkpt>
      <trkpt lat="59.987090405384" lon="15.795354184353">
        <ele>97</ele>
        <time>2019-04-16T11:45:55Z</time>
      </trkpt>
      <trkpt lat="59.987208171079" lon="15.795565072957">
        <ele>96.8</ele>
        <time>2019-04-16T11:46:01Z</time>
      </trkpt>
      <trkpt lat="59.987274639546" lon="15.795663057368">
        <ele>96.4</ele>
        <time>2019-04-16T11:46:04Z</time>
      </trkpt>
      <trkpt lat="59.987387627558" lon="15.795872185773">
        <ele>95.4</ele>
        <time>2019-04-16T11:46:10Z</time>
      </trkpt>
      <trkpt lat="59.987419981692" lon="15.795949299253">
        <ele>95.2</ele>
        <time>2019-04-16T11:46:12Z</time>
      </trkpt>
      <trkpt lat="59.987559875603" lon="15.796146441541">
        <ele>94.2</ele>
        <time>2019-04-16T11:46:18Z</time>
      </trkpt>
      <trkpt lat="59.987640509481" lon="15.79621441875">
        <ele>94.2</ele>
        <time>2019-04-16T11:46:21Z</time>
      </trkpt>
      <trkpt lat="59.987710414527" lon="15.796319863052">
        <ele>92.8</ele>
        <time>2019-04-16T11:46:25Z</time>
      </trkpt>
      <trkpt lat="59.987821558521" lon="15.796509042535">
        <ele>91.8</ele>
        <time>2019-04-16T11:46:31Z</time>
      </trkpt>
      <trkpt lat="59.987885428599" lon="15.796658156536">
        <ele>91.6</ele>
        <time>2019-04-16T11:46:35Z</time>
      </trkpt>
      <trkpt lat="59.988113835374" lon="15.796842474517">
        <ele>91.4</ele>
        <time>2019-04-16T11:46:44Z</time>
      </trkpt>
      <trkpt lat="59.988182231678" lon="15.796788243624">
        <ele>90.6</ele>
        <time>2019-04-16T11:46:48Z</time>
      </trkpt>
      <trkpt lat="59.988293459491" lon="15.796652289206">
        <ele>90.6</ele>
        <time>2019-04-16T11:46:54Z</time>
      </trkpt>
      <trkpt lat="59.988436203248" lon="15.796523375584">
        <ele>90.4</ele>
        <time>2019-04-16T11:47:00Z</time>
      </trkpt>
      <trkpt lat="59.988582048308" lon="15.796421619318">
        <ele>90</ele>
        <time>2019-04-16T11:47:06Z</time>
      </trkpt>
      <trkpt lat="59.988699059632" lon="15.796276696267">
        <ele>89.6</ele>
        <time>2019-04-16T11:47:11Z</time>
      </trkpt>
      <trkpt lat="59.988815232766" lon="15.796145603351">
        <ele>89.2</ele>
        <time>2019-04-16T11:47:17Z</time>
      </trkpt>
      <trkpt lat="59.988977171074" lon="15.796057425763">
        <ele>89.2</ele>
        <time>2019-04-16T11:47:23Z</time>
      </trkpt>
      <trkpt lat="59.989129386378" lon="15.795992466038">
        <ele>89.4</ele>
        <time>2019-04-16T11:47:29Z</time>
      </trkpt>
      <trkpt lat="59.989273806515" lon="15.795872604868">
        <ele>89.6</ele>
        <time>2019-04-16T11:47:35Z</time>
      </trkpt>
      <trkpt lat="59.989403725965" lon="15.795756599372">
        <ele>88.8</ele>
        <time>2019-04-16T11:47:41Z</time>
      </trkpt>
      <trkpt lat="59.989544374247" lon="15.795596924177">
        <ele>89.2</ele>
        <time>2019-04-16T11:47:47Z</time>
      </trkpt>
      <trkpt lat="59.989699607035" lon="15.795414114938">
        <ele>89.6</ele>
        <time>2019-04-16T11:47:53Z</time>
      </trkpt>
      <trkpt lat="59.989845452095" lon="15.795262486367">
        <ele>89.6</ele>
        <time>2019-04-16T11:47:59Z</time>
      </trkpt>
      <trkpt lat="59.989927929991" lon="15.795177410082">
        <ele>89.6</ele>
        <time>2019-04-16T11:48:03Z</time>
      </trkpt>
      <trkpt lat="59.99002440566" lon="15.795151929106">
        <ele>89.4</ele>
        <time>2019-04-16T11:48:06Z</time>
      </trkpt>
      <trkpt lat="59.990191959841" lon="15.794993930291">
        <ele>89.4</ele>
        <time>2019-04-16T11:48:12Z</time>
      </trkpt>
      <trkpt lat="59.990365632809" lon="15.794807516835">
        <ele>90.2</ele>
        <time>2019-04-16T11:48:18Z</time>
      </trkpt>
      <trkpt lat="59.990465545057" lon="15.794696624298">
        <ele>90.6</ele>
        <time>2019-04-16T11:48:21Z</time>
      </trkpt>
      <trkpt lat="59.990637625464" lon="15.794534518352">
        <ele>90.4</ele>
        <time>2019-04-16T11:48:27Z</time>
      </trkpt>
      <trkpt lat="59.990815489382" lon="15.794426224204">
        <ele>90.2</ele>
        <time>2019-04-16T11:48:33Z</time>
      </trkpt>
      <trkpt lat="59.991005004141" lon="15.794310553984">
        <ele>90</ele>
        <time>2019-04-16T11:48:39Z</time>
      </trkpt>
      <trkpt lat="59.991098294688" lon="15.794253724702">
        <ele>89.4</ele>
        <time>2019-04-16T11:48:42Z</time>
      </trkpt>
      <trkpt lat="59.991269453086" lon="15.794161859078">
        <ele>89.6</ele>
        <time>2019-04-16T11:48:48Z</time>
      </trkpt>
      <trkpt lat="59.991433570688" lon="15.794054319301">
        <ele>90.2</ele>
        <time>2019-04-16T11:48:54Z</time>
      </trkpt>
      <trkpt lat="59.991543625035" lon="15.793996735648">
        <ele>90.6</ele>
        <time>2019-04-16T11:48:59Z</time>
      </trkpt>
      <trkpt lat="59.991687458439" lon="15.793908222784">
        <ele>91.4</ele>
        <time>2019-04-16T11:49:05Z</time>
      </trkpt>
      <trkpt lat="59.991785861945" lon="15.793727844296">
        <ele>91.4</ele>
        <time>2019-04-16T11:49:11Z</time>
      </trkpt>
      <trkpt lat="59.991823329038" lon="15.793671266471">
        <ele>91.6</ele>
        <time>2019-04-16T11:49:13Z</time>
      </trkpt>
      <trkpt lat="59.991946040054" lon="15.7935364017">
        <ele>92</ele>
        <time>2019-04-16T11:49:19Z</time>
      </trkpt>
      <trkpt lat="59.992064643939" lon="15.793379576351">
        <ele>92</ele>
        <time>2019-04-16T11:49:25Z</time>
      </trkpt>
      <trkpt lat="59.992224905867" lon="15.793205903383">
        <ele>91.4</ele>
        <time>2019-04-16T11:49:31Z</time>
      </trkpt>
      <trkpt lat="59.992383239958" lon="15.79302007666">
        <ele>91.2</ele>
        <time>2019-04-16T11:49:36Z</time>
      </trkpt>
      <trkpt lat="59.992549285397" lon="15.792817402318">
        <ele>91</ele>
        <time>2019-04-16T11:49:42Z</time>
      </trkpt>
      <trkpt lat="59.992727652229" lon="15.792652278888">
        <ele>90.6</ele>
        <time>2019-04-16T11:49:48Z</time>
      </trkpt>
      <trkpt lat="59.992886070139" lon="15.792448598718">
        <ele>90.4</ele>
        <time>2019-04-16T11:49:54Z</time>
      </trkpt>
      <trkpt lat="59.993044823325" lon="15.792301328735">
        <ele>90.2</ele>
        <time>2019-04-16T11:50:00Z</time>
      </trkpt>
      <trkpt lat="59.993122607357" lon="15.792231088413">
        <ele>89.2</ele>
        <time>2019-04-16T11:50:03Z</time>
      </trkpt>
      <trkpt lat="59.993268452417" lon="15.792029419899">
        <ele>88</ele>
        <time>2019-04-16T11:50:09Z</time>
      </trkpt>
      <trkpt lat="59.993388816501" lon="15.791856417483">
        <ele>87.4</ele>
        <time>2019-04-16T11:50:15Z</time>
      </trkpt>
      <trkpt lat="59.993561483641" lon="15.791756589054">
        <ele>87.2</ele>
        <time>2019-04-16T11:50:21Z</time>
      </trkpt>
      <trkpt lat="59.993712609298" lon="15.791597500592">
        <ele>86.8</ele>
        <time>2019-04-16T11:50:26Z</time>
      </trkpt>
      <trkpt lat="59.993867087715" lon="15.79141410462">
        <ele>87.8</ele>
        <time>2019-04-16T11:50:32Z</time>
      </trkpt>
      <trkpt lat="59.993993570586" lon="15.791210759726">
        <ele>87.6</ele>
        <time>2019-04-16T11:50:38Z</time>
      </trkpt>
      <trkpt lat="59.994059703777" lon="15.791131718409">
        <ele>88</ele>
        <time>2019-04-16T11:50:41Z</time>
      </trkpt>
      <trkpt lat="59.994184174992" lon="15.790956117604">
        <ele>88</ele>
        <time>2019-04-16T11:50:47Z</time>
      </trkpt>
      <trkpt lat="59.994350555707" lon="15.790788228147">
        <ele>88.8</ele>
        <time>2019-04-16T11:50:53Z</time>
      </trkpt>
      <trkpt lat="59.994385675868" lon="15.790764088275">
        <ele>89</ele>
        <time>2019-04-16T11:50:54Z</time>
      </trkpt>
      <trkpt lat="59.994547027443" lon="15.790560072829">
        <ele>89.2</ele>
        <time>2019-04-16T11:51:00Z</time>
      </trkpt>
      <trkpt lat="59.99471407871" lon="15.790344155085">
        <ele>88.6</ele>
        <time>2019-04-16T11:51:06Z</time>
      </trkpt>
      <trkpt lat="59.994869814412" lon="15.790237621136">
        <ele>88.8</ele>
        <time>2019-04-16T11:51:12Z</time>
      </trkpt>
      <trkpt lat="59.995047259235" lon="15.790067300928">
        <ele>88.8</ele>
        <time>2019-04-16T11:51:18Z</time>
      </trkpt>
      <trkpt lat="59.99520441986" lon="15.789907625733">
        <ele>88.4</ele>
        <time>2019-04-16T11:51:24Z</time>
      </trkpt>
      <trkpt lat="59.995347582712" lon="15.789716266956">
        <ele>89.2</ele>
        <time>2019-04-16T11:51:30Z</time>
      </trkpt>
      <trkpt lat="59.995507928459" lon="15.78951225151">
        <ele>89.2</ele>
        <time>2019-04-16T11:51:36Z</time>
      </trkpt>
      <trkpt lat="59.99567296807" lon="15.789332711212">
        <ele>89.2</ele>
        <time>2019-04-16T11:51:42Z</time>
      </trkpt>
      <trkpt lat="59.995824345184" lon="15.789143028815">
        <ele>89.4</ele>
        <time>2019-04-16T11:51:48Z</time>
      </trkpt>
      <trkpt lat="59.99599650941" lon="15.788989388588">
        <ele>89.2</ele>
        <time>2019-04-16T11:51:54Z</time>
      </trkpt>
      <trkpt lat="59.996162051935" lon="15.788863408631">
        <ele>88.8</ele>
        <time>2019-04-16T11:52:00Z</time>
      </trkpt>
      <trkpt lat="59.9963493874" lon="15.788744050375">
        <ele>88.4</ele>
        <time>2019-04-16T11:52:06Z</time>
      </trkpt>
      <trkpt lat="59.996520210522" lon="15.788596528935">
        <ele>89</ele>
        <time>2019-04-16T11:52:12Z</time>
      </trkpt>
      <trkpt lat="59.99665197399" lon="15.788485804036">
        <ele>90.2</ele>
        <time>2019-04-16T11:52:17Z</time>
      </trkpt>
      <trkpt lat="59.996827658614" lon="15.788382287571">
        <ele>90.8</ele>
        <time>2019-04-16T11:52:23Z</time>
      </trkpt>
      <trkpt lat="59.996993536415" lon="15.78839662062">
        <ele>90.4</ele>
        <time>2019-04-16T11:52:29Z</time>
      </trkpt>
      <trkpt lat="59.997172154704" lon="15.788375079137">
        <ele>89.2</ele>
        <time>2019-04-16T11:52:35Z</time>
      </trkpt>
      <trkpt lat="59.997198809146" lon="15.788364434124">
        <ele>89</ele>
        <time>2019-04-16T11:52:36Z</time>
      </trkpt>
      <trkpt lat="59.997294195168" lon="15.788300396408">
        <ele>88</ele>
        <time>2019-04-16T11:52:40Z</time>
      </trkpt>
      <trkpt lat="59.997445572282" lon="15.788221606548">
        <ele>87</ele>
        <time>2019-04-16T11:52:46Z</time>
      </trkpt>
      <trkpt lat="59.997599380147" lon="15.788150779493">
        <ele>86.8</ele>
        <time>2019-04-16T11:52:52Z</time>
      </trkpt>
      <trkpt lat="59.997737765316" lon="15.788014825075">
        <ele>86.8</ele>
        <time>2019-04-16T11:52:58Z</time>
      </trkpt>
      <trkpt lat="59.997892579009" lon="15.787846600342">
        <ele>87</ele>
        <time>2019-04-16T11:53:04Z</time>
      </trkpt>
      <trkpt lat="59.998018558966" lon="15.787721290937">
        <ele>86.4</ele>
        <time>2019-04-16T11:53:10Z</time>
      </trkpt>
      <trkpt lat="59.997974973086" lon="15.78773528871">
        <ele>86.4</ele>
        <time>2019-04-16T11:53:14Z</time>
      </trkpt>
      <trkpt lat="59.997875228476" lon="15.787840649193">
        <ele>86</ele>
        <time>2019-04-16T11:53:20Z</time>
      </trkpt>
      <trkpt lat="59.997771712011" lon="15.787945842038">
        <ele>86.4</ele>
        <time>2019-04-16T11:53:26Z</time>
      </trkpt>
      <trkpt lat="59.99762175982" lon="15.788078862791">
        <ele>86.4</ele>
        <time>2019-04-16T11:53:32Z</time>
      </trkpt>
      <trkpt lat="59.997596949396" lon="15.788100236636">
        <ele>86.4</ele>
        <time>2019-04-16T11:53:33Z</time>
      </trkpt>
      <trkpt lat="59.997452193983" lon="15.788182965989">
        <ele>86.6</ele>
        <time>2019-04-16T11:53:39Z</time>
      </trkpt>
      <trkpt lat="59.997297045014" lon="15.788307437204">
        <ele>87.4</ele>
        <time>2019-04-16T11:53:45Z</time>
      </trkpt>
      <trkpt lat="59.99724289794" lon="15.788345658668">
        <ele>88</ele>
        <time>2019-04-16T11:53:47Z</time>
      </trkpt>
      <trkpt lat="59.997079869985" lon="15.788333924008">
        <ele>89</ele>
        <time>2019-04-16T11:53:53Z</time>
      </trkpt>
      <trkpt lat="59.99705514338" lon="15.788325625927">
        <ele>89.2</ele>
        <time>2019-04-16T11:53:54Z</time>
      </trkpt>
      <trkpt lat="59.9969780299" lon="15.788301234598">
        <ele>90.2</ele>
        <time>2019-04-16T11:53:57Z</time>
      </trkpt>
      <trkpt lat="59.996847020803" lon="15.788344904297">
        <ele>90.4</ele>
        <time>2019-04-16T11:54:03Z</time>
      </trkpt>
      <trkpt lat="59.996694218766" lon="15.78851061446">
        <ele>90.6</ele>
        <time>2019-04-16T11:54:09Z</time>
      </trkpt>
      <trkpt lat="59.996550553" lon="15.78867657608">
        <ele>89.6</ele>
        <time>2019-04-16T11:54:15Z</time>
      </trkpt>
      <trkpt lat="59.996453909693" lon="15.788763831659">
        <ele>89</ele>
        <time>2019-04-16T11:54:19Z</time>
      </trkpt>
      <trkpt lat="59.996287277521" lon="15.788931050564">
        <ele>89</ele>
        <time>2019-04-16T11:54:25Z</time>
      </trkpt>
      <trkpt lat="59.996125003937" lon="15.78913758058">
        <ele>89.4</ele>
        <time>2019-04-16T11:54:31Z</time>
      </trkpt>
      <trkpt lat="59.99596046724" lon="15.789297255775">
        <ele>89.8</ele>
        <time>2019-04-16T11:54:37Z</time>
      </trkpt>
      <trkpt lat="59.995800792045" lon="15.789453494391">
        <ele>89.6</ele>
        <time>2019-04-16T11:54:43Z</time>
      </trkpt>
      <trkpt lat="59.995645894533" lon="15.789631945042">
        <ele>89.4</ele>
        <time>2019-04-16T11:54:49Z</time>
      </trkpt>
      <trkpt lat="59.995506000622" lon="15.789831266624">
        <ele>89.8</ele>
        <time>2019-04-16T11:54:55Z</time>
      </trkpt>
      <trkpt lat="59.995342888848" lon="15.789981805548">
        <ele>89.4</ele>
        <time>2019-04-16T11:55:01Z</time>
      </trkpt>
      <trkpt lat="59.995170473165" lon="15.790112563188">
        <ele>89.2</ele>
        <time>2019-04-16T11:55:06Z</time>
      </trkpt>
      <trkpt lat="59.994981377501" lon="15.790269053261">
        <ele>88.6</ele>
        <time>2019-04-16T11:55:12Z</time>
      </trkpt>
      <trkpt lat="59.994812733673" lon="15.790419340728">
        <ele>88.6</ele>
        <time>2019-04-16T11:55:18Z</time>
      </trkpt>
      <trkpt lat="59.99463193609" lon="15.79062955878">
        <ele>88.4</ele>
        <time>2019-04-16T11:55:24Z</time>
      </trkpt>
      <trkpt lat="59.994480056062" lon="15.790803147929">
        <ele>88.6</ele>
        <time>2019-04-16T11:55:30Z</time>
      </trkpt>
      <trkpt lat="59.994350723345" lon="15.79092543985">
        <ele>89</ele>
        <time>2019-04-16T11:55:36Z</time>
      </trkpt>
      <trkpt lat="59.994200519697" lon="15.791081846104">
        <ele>88.2</ele>
        <time>2019-04-16T11:55:42Z</time>
      </trkpt>
      <trkpt lat="59.994129189728" lon="15.791176393936">
        <ele>87.8</ele>
        <time>2019-04-16T11:55:45Z</time>
      </trkpt>
      <trkpt lat="59.993983847582" lon="15.791353503483">
        <ele>87.8</ele>
        <time>2019-04-16T11:55:51Z</time>
      </trkpt>
      <trkpt lat="59.993819981437" lon="15.79154067131">
        <ele>87.6</ele>
        <time>2019-04-16T11:55:57Z</time>
      </trkpt>
      <trkpt lat="59.993647146659" lon="15.791685175266">
        <ele>87.2</ele>
        <time>2019-04-16T11:56:03Z</time>
      </trkpt>
      <trkpt lat="59.99347523389" lon="15.79180218659">
        <ele>87.2</ele>
        <time>2019-04-16T11:56:08Z</time>
      </trkpt>
      <trkpt lat="59.993403484826" lon="15.791848035583">
        <ele>89</ele>
        <time>2019-04-16T11:56:11Z</time>
      </trkpt>
      <trkpt lat="59.993366185371" lon="15.791898243164">
        <ele>87.8</ele>
        <time>2019-04-16T11:56:13Z</time>
      </trkpt>
      <trkpt lat="59.993248838771" lon="15.79202346875">
        <ele>88.2</ele>
        <time>2019-04-16T11:56:19Z</time>
      </trkpt>
      <trkpt lat="59.993139622614" lon="15.792153136743">
        <ele>89</ele>
        <time>2019-04-16T11:56:24Z</time>
      </trkpt>
      <trkpt lat="59.993033088665" lon="15.792309962092">
        <ele>90</ele>
        <time>2019-04-16T11:56:29Z</time>
      </trkpt>
      <trkpt lat="59.992925045974" lon="15.792447257614">
        <ele>91</ele>
        <time>2019-04-16T11:56:34Z</time>
      </trkpt>
      <trkpt lat="59.992787834271" lon="15.792586061878">
        <ele>91.6</ele>
        <time>2019-04-16T11:56:40Z</time>
      </trkpt>
      <trkpt lat="59.992648862369" lon="15.792713550577">
        <ele>90.6</ele>
        <time>2019-04-16T11:56:46Z</time>
      </trkpt>
      <trkpt lat="59.992530090846" lon="15.792852019565">
        <ele>93</ele>
        <time>2019-04-16T11:56:50Z</time>
      </trkpt>
      <trkpt lat="59.992475021763" lon="15.792911614874">
        <ele>91.2</ele>
        <time>2019-04-16T11:56:52Z</time>
      </trkpt>
      <trkpt lat="59.992305539745" lon="15.793042288695">
        <ele>91.2</ele>
        <time>2019-04-16T11:56:58Z</time>
      </trkpt>
      <trkpt lat="59.992189869525" lon="15.793142033305">
        <ele>91.8</ele>
        <time>2019-04-16T11:57:04Z</time>
      </trkpt>
      <trkpt lat="59.992028350312" lon="15.793377564695">
        <ele>91.8</ele>
        <time>2019-04-16T11:57:10Z</time>
      </trkpt>
      <trkpt lat="59.991899520509" lon="15.793600355597">
        <ele>91.6</ele>
        <time>2019-04-16T11:57:16Z</time>
      </trkpt>
      <trkpt lat="59.991722662419" lon="15.793842424869">
        <ele>91.6</ele>
        <time>2019-04-16T11:57:22Z</time>
      </trkpt>
      <trkpt lat="59.991594922263" lon="15.793969913568">
        <ele>93.2</ele>
        <time>2019-04-16T11:57:26Z</time>
      </trkpt>
      <trkpt lat="59.991536248963" lon="15.794003776444">
        <ele>91.2</ele>
        <time>2019-04-16T11:57:28Z</time>
      </trkpt>
      <trkpt lat="59.991348997317" lon="15.794090948204">
        <ele>90.4</ele>
        <time>2019-04-16T11:57:34Z</time>
      </trkpt>
      <trkpt lat="59.991257131693" lon="15.7941398985">
        <ele>90.2</ele>
        <time>2019-04-16T11:57:37Z</time>
      </trkpt>
      <trkpt lat="59.991098378507" lon="15.7942153356">
        <ele>90.2</ele>
        <time>2019-04-16T11:57:43Z</time>
      </trkpt>
      <trkpt lat="59.990945073556" lon="15.794313655287">
        <ele>90.2</ele>
        <time>2019-04-16T11:57:49Z</time>
      </trkpt>
      <trkpt lat="59.990780620678" lon="15.794444412927">
        <ele>91</ele>
        <time>2019-04-16T11:57:55Z</time>
      </trkpt>
      <trkpt lat="59.990609127004" lon="15.79463526879">
        <ele>91.8</ele>
        <time>2019-04-16T11:58:01Z</time>
      </trkpt>
      <trkpt lat="59.9905491126" lon="15.794697797764">
        <ele>90.6</ele>
        <time>2019-04-16T11:58:03Z</time>
      </trkpt>
      <trkpt lat="59.990386839016" lon="15.794867279782">
        <ele>90.4</ele>
        <time>2019-04-16T11:58:09Z</time>
      </trkpt>
      <trkpt lat="59.990267648398" lon="15.795013460118">
        <ele>89.4</ele>
        <time>2019-04-16T11:58:14Z</time>
      </trkpt>
      <trkpt lat="59.990154911843" lon="15.795101134792">
        <ele>88.8</ele>
        <time>2019-04-16T11:58:22Z</time>
      </trkpt>
      <trkpt lat="59.990147284314" lon="15.795106834484">
        <ele>89</ele>
        <time>2019-04-16T11:58:23Z</time>
      </trkpt>
      <trkpt lat="59.990076708716" lon="15.795165759241">
        <ele>89.2</ele>
        <time>2019-04-16T11:58:28Z</time>
      </trkpt>
      <trkpt lat="59.990053407034" lon="15.795177158625">
        <ele>89.2</ele>
        <time>2019-04-16T11:58:30Z</time>
      </trkpt>
      <trkpt lat="59.989957434279" lon="15.795227785301">
        <ele>89.6</ele>
        <time>2019-04-16T11:58:36Z</time>
      </trkpt>
      <trkpt lat="59.989941005755" lon="15.795237340667">
        <ele>89.6</ele>
        <time>2019-04-16T11:58:37Z</time>
      </trkpt>
      <trkpt lat="59.98987269327" lon="15.795312777767">
        <ele>89.6</ele>
        <time>2019-04-16T11:58:41Z</time>
      </trkpt>
      <trkpt lat="59.989811589219" lon="15.795397015862">
        <ele>89.8</ele>
        <time>2019-04-16T11:58:45Z</time>
      </trkpt>
      <trkpt lat="59.989790131555" lon="15.795430962557">
        <ele>89.8</ele>
        <time>2019-04-16T11:58:47Z</time>
      </trkpt>
      <trkpt lat="59.98975869943" lon="15.795488294753">
        <ele>90</ele>
        <time>2019-04-16T11:58:51Z</time>
      </trkpt>
      <trkpt lat="59.989737157947" lon="15.795524336923">
        <ele>89.8</ele>
        <time>2019-04-16T11:58:54Z</time>
      </trkpt>
      <trkpt lat="59.989726680572" lon="15.795541519818">
        <ele>89.8</ele>
        <time>2019-04-16T11:58:56Z</time>
      </trkpt>
      <trkpt lat="59.98970756984" lon="15.795598852014">
        <ele>89.8</ele>
        <time>2019-04-16T11:59:00Z</time>
      </trkpt>
      <trkpt lat="59.989673036412" lon="15.79563439127">
        <ele>89.8</ele>
        <time>2019-04-16T11:59:04Z</time>
      </trkpt>
      <trkpt lat="59.989629953446" lon="15.795693651303">
        <ele>89.4</ele>
        <time>2019-04-16T11:59:08Z</time>
      </trkpt>
      <trkpt lat="59.989571615422" lon="15.795747798377">
        <ele>89</ele>
        <time>2019-04-16T11:59:14Z</time>
      </trkpt>
      <trkpt lat="59.989514702321" lon="15.79581795488">
        <ele>89</ele>
        <time>2019-04-16T11:59:19Z</time>
      </trkpt>
      <trkpt lat="59.989463908007" lon="15.795884255709">
        <ele>89.2</ele>
        <time>2019-04-16T11:59:23Z</time>
      </trkpt>
      <trkpt lat="59.989448904406" lon="15.79588668646">
        <ele>89.2</ele>
        <time>2019-04-16T11:59:24Z</time>
      </trkpt>
      <trkpt lat="59.989412946055" lon="15.795911664522">
        <ele>89</ele>
        <time>2019-04-16T11:59:27Z</time>
      </trkpt>
      <trkpt lat="59.989394170599" lon="15.795925997571">
        <ele>88.8</ele>
        <time>2019-04-16T11:59:29Z</time>
      </trkpt>
      <trkpt lat="59.989326696304" lon="15.795962710293">
        <ele>88.8</ele>
        <time>2019-04-16T11:59:35Z</time>
      </trkpt>
      <trkpt lat="59.989279170931" lon="15.796002943413">
        <ele>88.8</ele>
        <time>2019-04-16T11:59:40Z</time>
      </trkpt>
      <trkpt lat="59.989228544255" lon="15.796030184588">
        <ele>89.2</ele>
        <time>2019-04-16T11:59:46Z</time>
      </trkpt>
      <trkpt lat="59.989204404383" lon="15.796039404678">
        <ele>89.2</ele>
        <time>2019-04-16T11:59:48Z</time>
      </trkpt>
      <trkpt lat="59.989165344729" lon="15.796063460731">
        <ele>89.2</ele>
        <time>2019-04-16T11:59:51Z</time>
      </trkpt>
      <trkpt lat="59.989104743592" lon="15.796077039409">
        <ele>89.2</ele>
        <time>2019-04-16T11:59:56Z</time>
      </trkpt>
      <trkpt lat="59.989005920991" lon="15.796147195912">
        <ele>89.6</ele>
        <time>2019-04-16T12:00:01Z</time>
      </trkpt>
      <trkpt lat="59.988905338191" lon="15.79621441875">
        <ele>89.6</ele>
        <time>2019-04-16T12:00:06Z</time>
      </trkpt>
      <trkpt lat="59.988803917201" lon="15.796326820029">
        <ele>89.6</ele>
        <time>2019-04-16T12:00:12Z</time>
      </trkpt>
      <trkpt lat="59.988798552785" lon="15.796349451159">
        <ele>89.6</ele>
        <time>2019-04-16T12:00:15Z</time>
      </trkpt>
      <trkpt lat="59.98883417586" lon="15.796277953552">
        <ele>89.6</ele>
        <time>2019-04-16T12:00:19Z</time>
      </trkpt>
      <trkpt lat="59.988885892183" lon="15.79622866798">
        <ele>89.6</ele>
        <time>2019-04-16T12:00:22Z</time>
      </trkpt>
      <trkpt lat="59.988999466928" lon="15.796165971368">
        <ele>90.6</ele>
        <time>2019-04-16T12:00:26Z</time>
      </trkpt>
      <trkpt lat="59.989182946719" lon="15.796055414107">
        <ele>89.4</ele>
        <time>2019-04-16T12:00:32Z</time>
      </trkpt>
      <trkpt lat="59.989329881426" lon="15.795873945972">
        <ele>89.2</ele>
        <time>2019-04-16T12:00:38Z</time>
      </trkpt>
      <trkpt lat="59.989477570504" lon="15.795700943556">
        <ele>89</ele>
        <time>2019-04-16T12:00:44Z</time>
      </trkpt>
      <trkpt lat="59.989660379743" lon="15.795526180941">
        <ele>89.6</ele>
        <time>2019-04-16T12:00:50Z</time>
      </trkpt>
      <trkpt lat="59.989830197037" lon="15.795390058885">
        <ele>90</ele>
        <time>2019-04-16T12:00:55Z</time>
      </trkpt>
      <trkpt lat="59.989977131744" lon="15.795220157772">
        <ele>89.8</ele>
        <time>2019-04-16T12:01:01Z</time>
      </trkpt>
      <trkpt lat="59.990142255174" lon="15.795091076512">
        <ele>89.4</ele>
        <time>2019-04-16T12:01:07Z</time>
      </trkpt>
      <trkpt lat="59.990261864887" lon="15.794947662203">
        <ele>90.4</ele>
        <time>2019-04-16T12:01:12Z</time>
      </trkpt>
      <trkpt lat="59.990442830108" lon="15.794761667842">
        <ele>90.8</ele>
        <time>2019-04-16T12:01:18Z</time>
      </trkpt>
      <trkpt lat="59.990628070098" lon="15.794599561896">
        <ele>91</ele>
        <time>2019-04-16T12:01:24Z</time>
      </trkpt>
      <trkpt lat="59.990800066686" lon="15.79446427803">
        <ele>89.6</ele>
        <time>2019-04-16T12:01:30Z</time>
      </trkpt>
      <trkpt lat="59.990829738612" lon="15.794452124275">
        <ele>89.4</ele>
        <time>2019-04-16T12:01:31Z</time>
      </trkpt>
      <trkpt lat="59.991017241715" lon="15.794348943086">
        <ele>88.8</ele>
        <time>2019-04-16T12:01:37Z</time>
      </trkpt>
      <trkpt lat="59.991200637687" lon="15.79420779189">
        <ele>88.6</ele>
        <time>2019-04-16T12:01:43Z</time>
      </trkpt>
      <trkpt lat="59.991366934583" lon="15.794101257941">
        <ele>88.8</ele>
        <time>2019-04-16T12:01:49Z</time>
      </trkpt>
      <trkpt lat="59.991500542069" lon="15.793999334037">
        <ele>89.6</ele>
        <time>2019-04-16T12:01:55Z</time>
      </trkpt>
      <trkpt lat="59.991625516198" lon="15.793893051545">
        <ele>90.2</ele>
        <time>2019-04-16T12:02:01Z</time>
      </trkpt>
      <trkpt lat="59.991648314966" lon="15.793876203926">
        <ele>90.4</ele>
        <time>2019-04-16T12:02:02Z</time>
      </trkpt>
      <trkpt lat="59.991779324063" lon="15.793746368295">
        <ele>91</ele>
        <time>2019-04-16T12:02:08Z</time>
      </trkpt>
      <trkpt lat="59.991905387839" lon="15.793563056142">
        <ele>91.6</ele>
        <time>2019-04-16T12:02:14Z</time>
      </trkpt>
      <trkpt lat="59.992021058059" lon="15.793400195825">
        <ele>91.8</ele>
        <time>2019-04-16T12:02:20Z</time>
      </trkpt>
      <trkpt lat="59.992138153202" lon="15.793265163416">
        <ele>91.8</ele>
        <time>2019-04-16T12:02:26Z</time>
      </trkpt>
      <trkpt lat="59.992326745952" lon="15.793117809614">
        <ele>91.4</ele>
        <time>2019-04-16T12:02:32Z</time>
      </trkpt>
      <trkpt lat="59.992495808875" lon="15.792925612647">
        <ele>91</ele>
        <time>2019-04-16T12:02:38Z</time>
      </trkpt>
      <trkpt lat="59.992675097716" lon="15.792732074576">
        <ele>91</ele>
        <time>2019-04-16T12:02:44Z</time>
      </trkpt>
      <trkpt lat="59.992804095157" lon="15.792569214259">
        <ele>90.6</ele>
        <time>2019-04-16T12:02:49Z</time>
      </trkpt>
      <trkpt lat="59.992966536379" lon="15.792425380855">
        <ele>90.2</ele>
        <time>2019-04-16T12:02:55Z</time>
      </trkpt>
      <trkpt lat="59.993091510508" lon="15.79230845335">
        <ele>89.6</ele>
        <time>2019-04-16T12:03:00Z</time>
      </trkpt>
      <trkpt lat="59.993189243462" lon="15.792175935511">
        <ele>88.4</ele>
        <time>2019-04-16T12:03:05Z</time>
      </trkpt>
      <trkpt lat="59.993280606172" lon="15.792072502865">
        <ele>87.4</ele>
        <time>2019-04-16T12:03:09Z</time>
      </trkpt>
      <trkpt lat="59.993441790109" lon="15.791911905661">
        <ele>87.2</ele>
        <time>2019-04-16T12:03:15Z</time>
      </trkpt>
      <trkpt lat="59.993625605176" lon="15.791705459464">
        <ele>87.4</ele>
        <time>2019-04-16T12:03:21Z</time>
      </trkpt>
      <trkpt lat="59.993771869331" lon="15.791485769865">
        <ele>87.6</ele>
        <time>2019-04-16T12:03:27Z</time>
      </trkpt>
      <trkpt lat="59.993893658338" lon="15.791273875433">
        <ele>87.8</ele>
        <time>2019-04-16T12:03:33Z</time>
      </trkpt>
      <trkpt lat="59.994029026023" lon="15.791149571856">
        <ele>87.6</ele>
        <time>2019-04-16T12:03:39Z</time>
      </trkpt>
      <trkpt lat="59.994143438958" lon="15.791057454775">
        <ele>88.4</ele>
        <time>2019-04-16T12:03:45Z</time>
      </trkpt>
      <trkpt lat="59.994300515764" lon="15.790872801518">
        <ele>89.2</ele>
        <time>2019-04-16T12:03:51Z</time>
      </trkpt>
      <trkpt lat="59.994436386363" lon="15.79064967534">
        <ele>89.4</ele>
        <time>2019-04-16T12:03:57Z</time>
      </trkpt>
      <trkpt lat="59.994611735711" lon="15.790489161955">
        <ele>89.2</ele>
        <time>2019-04-16T12:04:03Z</time>
      </trkpt>
      <trkpt lat="59.994798232986" lon="15.790287996355">
        <ele>88.8</ele>
        <time>2019-04-16T12:04:09Z</time>
      </trkpt>
      <trkpt lat="59.994971905954" lon="15.790144330589">
        <ele>88.8</ele>
        <time>2019-04-16T12:04:15Z</time>
      </trkpt>
      <trkpt lat="59.995122444878" lon="15.789981805548">
        <ele>88.8</ele>
        <time>2019-04-16T12:04:21Z</time>
      </trkpt>
      <trkpt lat="59.995272145612" lon="15.78980394163">
        <ele>89</ele>
        <time>2019-04-16T12:04:27Z</time>
      </trkpt>
      <trkpt lat="59.995368286005" lon="15.789715764042">
        <ele>90.8</ele>
        <time>2019-04-16T12:04:30Z</time>
      </trkpt>
      <trkpt lat="59.995510191572" lon="15.789524153808">
        <ele>90.6</ele>
        <time>2019-04-16T12:04:36Z</time>
      </trkpt>
      <trkpt lat="59.995653438243" lon="15.789370094486">
        <ele>91</ele>
        <time>2019-04-16T12:04:42Z</time>
      </trkpt>
      <trkpt lat="59.995818561673" lon="15.789237744285">
        <ele>91.2</ele>
        <time>2019-04-16T12:04:48Z</time>
      </trkpt>
      <trkpt lat="59.996011261554" lon="15.789072034122">
        <ele>91.2</ele>
        <time>2019-04-16T12:04:54Z</time>
      </trkpt>
      <trkpt lat="59.996159621184" lon="15.788917220429">
        <ele>90.2</ele>
        <time>2019-04-16T12:05:00Z</time>
      </trkpt>
      <trkpt lat="59.996328516469" lon="15.788792916852">
        <ele>90.2</ele>
        <time>2019-04-16T12:05:06Z</time>
      </trkpt>
      <trkpt lat="59.996501267428" lon="15.788670122017">
        <ele>90.8</ele>
        <time>2019-04-16T12:05:12Z</time>
      </trkpt>
      <trkpt lat="59.996590869939" lon="15.788593176175">
        <ele>89.6</ele>
        <time>2019-04-16T12:05:15Z</time>
      </trkpt>
      <trkpt lat="59.996706623978" lon="15.788470129883">
        <ele>88.6</ele>
        <time>2019-04-16T12:05:19Z</time>
      </trkpt>
      <trkpt lat="59.996775858472" lon="15.788401314484">
        <ele>88.8</ele>
        <time>2019-04-16T12:05:22Z</time>
      </trkpt>
      <trkpt lat="59.996703522675" lon="15.788467782951">
        <ele>89.2</ele>
        <time>2019-04-16T12:05:28Z</time>
      </trkpt>
      <trkpt lat="59.996563712583" lon="15.788634247485">
        <ele>88.8</ele>
        <time>2019-04-16T12:05:34Z</time>
      </trkpt>
      <trkpt lat="59.996542841652" lon="15.788661823936">
        <ele>89.6</ele>
        <time>2019-04-16T12:05:35Z</time>
      </trkpt>
      <trkpt lat="59.996499255772" lon="15.788715719553">
        <ele>88.6</ele>
        <time>2019-04-16T12:05:37Z</time>
      </trkpt>
      <trkpt lat="59.996371850892" lon="15.788856284016">
        <ele>88.2</ele>
        <time>2019-04-16T12:05:43Z</time>
      </trkpt>
      <trkpt lat="59.996252660274" lon="15.788977151014">
        <ele>88.8</ele>
        <time>2019-04-16T12:05:49Z</time>
      </trkpt>
      <trkpt lat="59.996114945657" lon="15.789133892544">
        <ele>89</ele>
        <time>2019-04-16T12:05:55Z</time>
      </trkpt>
      <trkpt lat="59.995956527747" lon="15.789259285768">
        <ele>89.4</ele>
        <time>2019-04-16T12:06:01Z</time>
      </trkpt>
      <trkpt lat="59.995824429003" lon="15.789438155514">
        <ele>89.4</ele>
        <time>2019-04-16T12:06:07Z</time>
      </trkpt>
      <trkpt lat="59.995680595599" lon="15.789601854021">
        <ele>89.2</ele>
        <time>2019-04-16T12:06:12Z</time>
      </trkpt>
      <trkpt lat="59.99561261839" lon="15.789680895338">
        <ele>91.6</ele>
        <time>2019-04-16T12:06:14Z</time>
      </trkpt>
      <trkpt lat="59.995540282593" lon="15.789754153144">
        <ele>90</ele>
        <time>2019-04-16T12:06:16Z</time>
      </trkpt>
      <trkpt lat="59.995357389535" lon="15.789932687614">
        <ele>89.4</ele>
        <time>2019-04-16T12:06:22Z</time>
      </trkpt>
      <trkpt lat="59.995167288043" lon="15.79012245383">
        <ele>89.6</ele>
        <time>2019-04-16T12:06:28Z</time>
      </trkpt>
      <trkpt lat="59.994996464921" lon="15.790266873967">
        <ele>89.4</ele>
        <time>2019-04-16T12:06:34Z</time>
      </trkpt>
      <trkpt lat="59.994822875772" lon="15.790402493109">
        <ele>89.4</ele>
        <time>2019-04-16T12:06:40Z</time>
      </trkpt>
      <trkpt lat="59.994682143671" lon="15.790521516089">
        <ele>88.4</ele>
        <time>2019-04-16T12:06:45Z</time>
      </trkpt>
      <trkpt lat="59.994636797592" lon="15.790573316231">
        <ele>89.6</ele>
        <time>2019-04-16T12:06:47Z</time>
      </trkpt>
      <trkpt lat="59.994497993328" lon="15.790747408294">
        <ele>90</ele>
        <time>2019-04-16T12:06:53Z</time>
      </trkpt>
      <trkpt lat="59.994360865444" lon="15.790904066005">
        <ele>90</ele>
        <time>2019-04-16T12:06:59Z</time>
      </trkpt>
      <trkpt lat="59.994228179967" lon="15.791069440892">
        <ele>89</ele>
        <time>2019-04-16T12:07:05Z</time>
      </trkpt>
      <trkpt lat="59.99408878897" lon="15.791174298461">
        <ele>88.6</ele>
        <time>2019-04-16T12:07:11Z</time>
      </trkpt>
      <trkpt lat="59.994062637442" lon="15.791203970387">
        <ele>88.4</ele>
        <time>2019-04-16T12:07:12Z</time>
      </trkpt>
      <trkpt lat="59.993907572292" lon="15.791399101019">
        <ele>88.4</ele>
        <time>2019-04-16T12:07:18Z</time>
      </trkpt>
      <trkpt lat="59.993742029767" lon="15.79157419891">
        <ele>88.6</ele>
        <time>2019-04-16T12:07:23Z</time>
      </trkpt>
      <trkpt lat="59.993567602428" lon="15.791742339824">
        <ele>88</ele>
        <time>2019-04-16T12:07:29Z</time>
      </trkpt>
      <trkpt lat="59.993413124011" lon="15.791903356123">
        <ele>87.8</ele>
        <time>2019-04-16T12:07:35Z</time>
      </trkpt>
      <trkpt lat="59.993275660851" lon="15.79205448178">
        <ele>88</ele>
        <time>2019-04-16T12:07:41Z</time>
      </trkpt>
      <trkpt lat="59.993128809963" lon="15.79220954693">
        <ele>88.8</ele>
        <time>2019-04-16T12:07:47Z</time>
      </trkpt>
      <trkpt lat="59.993042476393" lon="15.792318176354">
        <ele>89.8</ele>
        <time>2019-04-16T12:07:51Z</time>
      </trkpt>
      <trkpt lat="59.992950946045" lon="15.792414316747">
        <ele>91</ele>
        <time>2019-04-16T12:07:55Z</time>
      </trkpt>
      <trkpt lat="59.992774926145" lon="15.792594359959">
        <ele>91.8</ele>
        <time>2019-04-16T12:08:01Z</time>
      </trkpt>
      <trkpt lat="59.992608796887" lon="15.792761997959">
        <ele>91.6</ele>
        <time>2019-04-16T12:08:07Z</time>
      </trkpt>
      <trkpt lat="59.992503268766" lon="15.79286333513">
        <ele>92.4</ele>
        <time>2019-04-16T12:08:11Z</time>
      </trkpt>
      <trkpt lat="59.992426909657" lon="15.792950171614">
        <ele>91.4</ele>
        <time>2019-04-16T12:08:14Z</time>
      </trkpt>
      <trkpt lat="59.992286009918" lon="15.793067518214">
        <ele>91.6</ele>
        <time>2019-04-16T12:08:20Z</time>
      </trkpt>
      <trkpt lat="59.992150223138" lon="15.793172459602">
        <ele>92.6</ele>
        <time>2019-04-16T12:08:26Z</time>
      </trkpt>
      <trkpt lat="59.992017705299" lon="15.793349569149">
        <ele>92.4</ele>
        <time>2019-04-16T12:08:32Z</time>
      </trkpt>
      <trkpt lat="59.991906393667" lon="15.79354897455">
        <ele>92.6</ele>
        <time>2019-04-16T12:08:38Z</time>
      </trkpt>
      <trkpt lat="59.99177538457" lon="15.793722563699">
        <ele>91.8</ele>
        <time>2019-04-16T12:08:44Z</time>
      </trkpt>
      <trkpt lat="59.99160271743" lon="15.793894225011">
        <ele>92</ele>
        <time>2019-04-16T12:08:50Z</time>
      </trkpt>
      <trkpt lat="59.991426194616" lon="15.794011739249">
        <ele>91.6</ele>
        <time>2019-04-16T12:08:56Z</time>
      </trkpt>
      <trkpt lat="59.991399540174" lon="15.794017355122">
        <ele>91.4</ele>
        <time>2019-04-16T12:08:57Z</time>
      </trkpt>
      <trkpt lat="59.991214886917" lon="15.794145346735">
        <ele>90.2</ele>
        <time>2019-04-16T12:09:03Z</time>
      </trkpt>
      <trkpt lat="59.991060240862" lon="15.794253724702">
        <ele>90.4</ele>
        <time>2019-04-16T12:09:09Z</time>
      </trkpt>
      <trkpt lat="59.990909282843" lon="15.794378531193">
        <ele>90.6</ele>
        <time>2019-04-16T12:09:15Z</time>
      </trkpt>
      <trkpt lat="59.990744243232" lon="15.794531165592">
        <ele>91</ele>
        <time>2019-04-16T12:09:20Z</time>
      </trkpt>
      <trkpt lat="59.990686827217" lon="15.794594448937">
        <ele>91.4</ele>
        <time>2019-04-16T12:09:22Z</time>
      </trkpt>
      <trkpt lat="59.990535785379" lon="15.794764936783">
        <ele>92</ele>
        <time>2019-04-16T12:09:28Z</time>
      </trkpt>
      <trkpt lat="59.990401004427" lon="15.794897203165">
        <ele>92.2</ele>
        <time>2019-04-16T12:09:34Z</time>
      </trkpt>
      <trkpt lat="59.990292207365" lon="15.795008095702">
        <ele>91</ele>
        <time>2019-04-16T12:09:40Z</time>
      </trkpt>
      <trkpt lat="59.99019791099" lon="15.795084790087">
        <ele>90.6</ele>
        <time>2019-04-16T12:09:46Z</time>
      </trkpt>
      <trkpt lat="59.990060531649" lon="15.795220409229">
        <ele>90.8</ele>
        <time>2019-04-16T12:09:52Z</time>
      </trkpt>
      <trkpt lat="59.989933797321" lon="15.795358878217">
        <ele>90.6</ele>
        <time>2019-04-16T12:09:58Z</time>
      </trkpt>
      <trkpt lat="59.989881158989" lon="15.795404140477">
        <ele>90.2</ele>
        <time>2019-04-16T12:10:00Z</time>
      </trkpt>
      <trkpt lat="59.989714442998" lon="15.795577226712">
        <ele>90.2</ele>
        <time>2019-04-16T12:10:06Z</time>
      </trkpt>
      <trkpt lat="59.989547056455" lon="15.795778643769">
        <ele>89.8</ele>
        <time>2019-04-16T12:10:11Z</time>
      </trkpt>
      <trkpt lat="59.989384782871" lon="15.795914430549">
        <ele>89.8</ele>
        <time>2019-04-16T12:10:17Z</time>
      </trkpt>
      <trkpt lat="59.989355362402" lon="15.7959336251">
        <ele>88.8</ele>
        <time>2019-04-16T12:10:18Z</time>
      </trkpt>
      <trkpt lat="59.989158723028" lon="15.79604342799">
        <ele>89.8</ele>
        <time>2019-04-16T12:10:26Z</time>
      </trkpt>
      <trkpt lat="59.98914430616" lon="15.796039404678">
        <ele>89.8</ele>
        <time>2019-04-16T12:10:27Z</time>
      </trkpt>
      <trkpt lat="59.989096026416" lon="15.796061700532">
        <ele>89.8</ele>
        <time>2019-04-16T12:10:30Z</time>
      </trkpt>
      <trkpt lat="59.989036514926" lon="15.796112494846">
        <ele>90</ele>
        <time>2019-04-16T12:10:34Z</time>
      </trkpt>
      <trkpt lat="59.988982786947" lon="15.796156332183">
        <ele>90</ele>
        <time>2019-04-16T12:10:40Z</time>
      </trkpt>
      <trkpt lat="59.988972896305" lon="15.796165719911">
        <ele>90</ele>
        <time>2019-04-16T12:10:41Z</time>
      </trkpt>
      <trkpt lat="59.988950181356" lon="15.796181310245">
        <ele>89.8</ele>
        <time>2019-04-16T12:10:43Z</time>
      </trkpt>
      <trkpt lat="59.988859908293" lon="15.796285329624">
        <ele>90</ele>
        <time>2019-04-16T12:10:48Z</time>
      </trkpt>
      <trkpt lat="59.988842390122" lon="15.796308379849">
        <ele>90</ele>
        <time>2019-04-16T12:10:50Z</time>
      </trkpt>
      <trkpt lat="59.988781118433" lon="15.796408459735">
        <ele>90</ele>
        <time>2019-04-16T12:10:55Z</time>
      </trkpt>
      <trkpt lat="59.988742729331" lon="15.796457996764">
        <ele>89.8</ele>
        <time>2019-04-16T12:10:58Z</time>
      </trkpt>
      <trkpt lat="59.988722948047" lon="15.796467803587">
        <ele>89.6</ele>
        <time>2019-04-16T12:11:00Z</time>
      </trkpt>
      <trkpt lat="59.988691096827" lon="15.796476353125">
        <ele>89.6</ele>
        <time>2019-04-16T12:11:03Z</time>
      </trkpt>
      <trkpt lat="59.988672237552" lon="15.796478280962">
        <ele>89.6</ele>
        <time>2019-04-16T12:11:05Z</time>
      </trkpt>
      <trkpt lat="59.988645080196" lon="15.79650694706">
        <ele>89.6</ele>
        <time>2019-04-16T12:11:08Z</time>
      </trkpt>
      <trkpt lat="59.988626220921" lon="15.796515664236">
        <ele>89.6</ele>
        <time>2019-04-16T12:11:09Z</time>
      </trkpt>
      <trkpt lat="59.988598812108" lon="15.796545922895">
        <ele>89.6</ele>
        <time>2019-04-16T12:11:11Z</time>
      </trkpt>
      <trkpt lat="59.988543156292" lon="15.796553382786">
        <ele>89.8</ele>
        <time>2019-04-16T12:11:16Z</time>
      </trkpt>
      <trkpt lat="59.988491020874" lon="15.796579953409">
        <ele>89.8</ele>
        <time>2019-04-16T12:11:21Z</time>
      </trkpt>
      <trkpt lat="59.988488422485" lon="15.7965957952">
        <ele>90.4</ele>
        <time>2019-04-16T12:11:27Z</time>
      </trkpt>
      <trkpt lat="59.988491188512" lon="15.796595292286">
        <ele>90.4</ele>
        <time>2019-04-16T12:11:28Z</time>
      </trkpt>
      <trkpt lat="59.988519351696" lon="15.796565955636">
        <ele>90.2</ele>
        <time>2019-04-16T12:11:34Z</time>
      </trkpt>
      <trkpt lat="59.988528571786" lon="15.796559166297">
        <ele>90.2</ele>
        <time>2019-04-16T12:11:35Z</time>
      </trkpt>
      <trkpt lat="59.988550197088" lon="15.796574588993">
        <ele>90.4</ele>
        <time>2019-04-16T12:11:38Z</time>
      </trkpt>
      <trkpt lat="59.988525889578" lon="15.796592610078">
        <ele>90.4</ele>
        <time>2019-04-16T12:11:42Z</time>
      </trkpt>
      <trkpt lat="59.988495379462" lon="15.79662513185">
        <ele>90.4</ele>
        <time>2019-04-16T12:11:47Z</time>
      </trkpt>
      <trkpt lat="59.988490434141" lon="15.796643236754">
        <ele>90.8</ele>
        <time>2019-04-16T12:11:50Z</time>
      </trkpt>
      <trkpt lat="59.988452715591" lon="15.796687493186">
        <ele>91</ele>
        <time>2019-04-16T12:11:54Z</time>
      </trkpt>
      <trkpt lat="59.988435365058" lon="15.796707777384">
        <ele>91.2</ele>
        <time>2019-04-16T12:11:56Z</time>
      </trkpt>
      <trkpt lat="59.988378871052" lon="15.796747339952">
        <ele>91.2</ele>
        <time>2019-04-16T12:12:00Z</time>
      </trkpt>
      <trkpt lat="59.988343164158" lon="15.796769803444">
        <ele>91</ele>
        <time>2019-04-16T12:12:03Z</time>
      </trkpt>
      <trkpt lat="59.988303769228" lon="15.7968556341">
        <ele>90.8</ele>
        <time>2019-04-16T12:12:07Z</time>
      </trkpt>
      <trkpt lat="59.988292956577" lon="15.796882959094">
        <ele>90.8</ele>
        <time>2019-04-16T12:12:09Z</time>
      </trkpt>
      <trkpt lat="59.988263284651" lon="15.796926628793">
        <ele>90.8</ele>
        <time>2019-04-16T12:12:15Z</time>
      </trkpt>
      <trkpt lat="59.988251047077" lon="15.79693023301">
        <ele>90.6</ele>
        <time>2019-04-16T12:12:16Z</time>
      </trkpt>
      <trkpt lat="59.988219279676" lon="15.796887988234">
        <ele>90.6</ele>
        <time>2019-04-16T12:12:23Z</time>
      </trkpt>
      <trkpt lat="59.988241910806" lon="15.796855717919">
        <ele>90.4</ele>
        <time>2019-04-16T12:12:27Z</time>
      </trkpt>
      <trkpt lat="59.988326400358" lon="15.796753458739">
        <ele>91</ele>
        <time>2019-04-16T12:12:33Z</time>
      </trkpt>
      <trkpt lat="59.988410219358" lon="15.796707777384">
        <ele>90.8</ele>
        <time>2019-04-16T12:12:39Z</time>
      </trkpt>
      <trkpt lat="59.988579114643" lon="15.79659830977">
        <ele>90.4</ele>
        <time>2019-04-16T12:12:45Z</time>
      </trkpt>
      <trkpt lat="59.988761504787" lon="15.796454057271">
        <ele>89.6</ele>
        <time>2019-04-16T12:12:50Z</time>
      </trkpt>
      <trkpt lat="59.988903997087" lon="15.796302680157">
        <ele>89.6</ele>
        <time>2019-04-16T12:12:56Z</time>
      </trkpt>
      <trkpt lat="59.98905042888" lon="15.796081062721">
        <ele>89.2</ele>
        <time>2019-04-16T12:13:02Z</time>
      </trkpt>
      <trkpt lat="59.989228544255" lon="15.795909652866">
        <ele>88.8</ele>
        <time>2019-04-16T12:13:08Z</time>
      </trkpt>
      <trkpt lat="59.989374221677" lon="15.795698764262">
        <ele>89</ele>
        <time>2019-04-16T12:13:13Z</time>
      </trkpt>
      <trkpt lat="59.989551247405" lon="15.795533389375">
        <ele>89.2</ele>
        <time>2019-04-16T12:13:19Z</time>
      </trkpt>
      <trkpt lat="59.989733134635" lon="15.795359297312">
        <ele>89.6</ele>
        <time>2019-04-16T12:13:25Z</time>
      </trkpt>
      <trkpt lat="59.989895827314" lon="15.79522535455">
        <ele>90.6</ele>
        <time>2019-04-16T12:13:31Z</time>
      </trkpt>
      <trkpt lat="59.990073691232" lon="15.795030978289">
        <ele>90</ele>
        <time>2019-04-16T12:13:37Z</time>
      </trkpt>
      <trkpt lat="59.990240407223" lon="15.794899382459">
        <ele>90.6</ele>
        <time>2019-04-16T12:13:43Z</time>
      </trkpt>
      <trkpt lat="59.990262535439" lon="15.794874404397">
        <ele>90.6</ele>
        <time>2019-04-16T12:13:44Z</time>
      </trkpt>
      <trkpt lat="59.990427826507" lon="15.794716321763">
        <ele>91.4</ele>
        <time>2019-04-16T12:13:50Z</time>
      </trkpt>
      <trkpt lat="59.990454732406" lon="15.794687488027">
        <ele>91.6</ele>
        <time>2019-04-16T12:13:51Z</time>
      </trkpt>
      <trkpt lat="59.99060862409" lon="15.794503002408">
        <ele>91.8</ele>
        <time>2019-04-16T12:13:57Z</time>
      </trkpt>
      <trkpt lat="59.990791014234" lon="15.794404850359">
        <ele>91</ele>
        <time>2019-04-16T12:14:03Z</time>
      </trkpt>
      <trkpt lat="59.990880365288" lon="15.794352714941">
        <ele>90.6</ele>
        <time>2019-04-16T12:14:06Z</time>
      </trkpt>
      <trkpt lat="59.991064012717" lon="15.794287755216">
        <ele>90.4</ele>
        <time>2019-04-16T12:14:12Z</time>
      </trkpt>
      <trkpt lat="59.991146825889" lon="15.794226483527">
        <ele>88.6</ele>
        <time>2019-04-16T12:14:15Z</time>
      </trkpt>
      <trkpt lat="59.991292754768" lon="15.794118859931">
        <ele>88.4</ele>
        <time>2019-04-16T12:14:21Z</time>
      </trkpt>
      <trkpt lat="59.991444467158" lon="15.794031520533">
        <ele>89</ele>
        <time>2019-04-16T12:14:27Z</time>
      </trkpt>
      <trkpt lat="59.991566256165" lon="15.793925908593">
        <ele>89.8</ele>
        <time>2019-04-16T12:14:32Z</time>
      </trkpt>
      <trkpt lat="59.991674382675" lon="15.793794145125">
        <ele>90.2</ele>
        <time>2019-04-16T12:14:38Z</time>
      </trkpt>
      <trkpt lat="59.991773792009" lon="15.793683504045">
        <ele>90.4</ele>
        <time>2019-04-16T12:14:43Z</time>
      </trkpt>
      <trkpt lat="59.991852246593" lon="15.793532797483">
        <ele>91</ele>
        <time>2019-04-16T12:14:47Z</time>
      </trkpt>
      <trkpt lat="59.991982082224" lon="15.793381168912">
        <ele>90.8</ele>
        <time>2019-04-16T12:14:53Z</time>
      </trkpt>
      <trkpt lat="59.992092639485" lon="15.793246052684">
        <ele>90.8</ele>
        <time>2019-04-16T12:14:59Z</time>
      </trkpt>
      <trkpt lat="59.992258936381" lon="15.793103560384">
        <ele>90.6</ele>
        <time>2019-04-16T12:15:05Z</time>
      </trkpt>
      <trkpt lat="59.992439901602" lon="15.792910944322">
        <ele>91.4</ele>
        <time>2019-04-16T12:15:11Z</time>
      </trkpt>
      <trkpt lat="59.992512321218" lon="15.792825029847">
        <ele>92.2</ele>
        <time>2019-04-16T12:15:14Z</time>
      </trkpt>
      <trkpt lat="59.992683647254" lon="15.792627217007">
        <ele>91.4</ele>
        <time>2019-04-16T12:15:20Z</time>
      </trkpt>
      <trkpt lat="59.992838963861" lon="15.792456310066">
        <ele>91.4</ele>
        <time>2019-04-16T12:15:26Z</time>
      </trkpt>
      <trkpt lat="59.99292370487" lon="15.792361007863">
        <ele>91.2</ele>
        <time>2019-04-16T12:15:29Z</time>
      </trkpt>
      <trkpt lat="59.993062341496" lon="15.792198315184">
        <ele>89.8</ele>
        <time>2019-04-16T12:15:35Z</time>
      </trkpt>
      <trkpt lat="59.993157392242" lon="15.79209136214">
        <ele>88.6</ele>
        <time>2019-04-16T12:15:39Z</time>
      </trkpt>
      <trkpt lat="59.993323102405" lon="15.79194300251">
        <ele>88</ele>
        <time>2019-04-16T12:15:45Z</time>
      </trkpt>
      <trkpt lat="59.993400132066" lon="15.791871923998">
        <ele>87.4</ele>
        <time>2019-04-16T12:15:48Z</time>
      </trkpt>
      <trkpt lat="59.993535415932" lon="15.791722223264">
        <ele>88</ele>
        <time>2019-04-16T12:15:54Z</time>
      </trkpt>
      <trkpt lat="59.993560980727" lon="15.791671596588">
        <ele>88.8</ele>
        <time>2019-04-16T12:15:55Z</time>
      </trkpt>
      <trkpt lat="59.993708334529" lon="15.791446542573">
        <ele>89.4</ele>
        <time>2019-04-16T12:16:00Z</time>
      </trkpt>
      <trkpt lat="59.993846468241" lon="15.79123640834">
        <ele>89.2</ele>
        <time>2019-04-16T12:16:06Z</time>
      </trkpt>
      <trkpt lat="59.99396725142" lon="15.79109056328">
        <ele>89.4</ele>
        <time>2019-04-16T12:16:12Z</time>
      </trkpt>
      <trkpt lat="59.994099098707" lon="15.790947065152">
        <ele>89.8</ele>
        <time>2019-04-16T12:16:18Z</time>
      </trkpt>
      <trkpt lat="59.994119131448" lon="15.790930804266">
        <ele>90</ele>
        <time>2019-04-16T12:16:19Z</time>
      </trkpt>
      <trkpt lat="59.99423631041" lon="15.790874980812">
        <ele>90.6</ele>
        <time>2019-04-16T12:16:25Z</time>
      </trkpt>
      <trkpt lat="59.994345023653" lon="15.790762998628">
        <ele>91</ele>
        <time>2019-04-16T12:16:30Z</time>
      </trkpt>
      <trkpt lat="59.994497909509" lon="15.790610950962">
        <ele>91.2</ele>
        <time>2019-04-16T12:16:36Z</time>
      </trkpt>
      <trkpt lat="59.994678371816" lon="15.790477259657">
        <ele>90.8</ele>
        <time>2019-04-16T12:16:42Z</time>
      </trkpt>
      <trkpt lat="59.994832179681" lon="15.790302245585">
        <ele>90.6</ele>
        <time>2019-04-16T12:16:48Z</time>
      </trkpt>
      <trkpt lat="59.994987747745" lon="15.790131506282">
        <ele>91</ele>
        <time>2019-04-16T12:16:54Z</time>
      </trkpt>
      <trkpt lat="59.995129569493" lon="15.789954396735">
        <ele>90.6</ele>
        <time>2019-04-16T12:17:00Z</time>
      </trkpt>
      <trkpt lat="59.99524716755" lon="15.789813329358">
        <ele>90.4</ele>
        <time>2019-04-16T12:17:06Z</time>
      </trkpt>
      <trkpt lat="59.995398796121" lon="15.789681062976">
        <ele>90.8</ele>
        <time>2019-04-16T12:17:12Z</time>
      </trkpt>
      <trkpt lat="59.995561572619" lon="15.789509150207">
        <ele>90.8</ele>
        <time>2019-04-16T12:17:18Z</time>
      </trkpt>
      <trkpt lat="59.995725606402" lon="15.789305805313">
        <ele>90.8</ele>
        <time>2019-04-16T12:17:23Z</time>
      </trkpt>
      <trkpt lat="59.99573415594" lon="15.789304212752">
        <ele>90.8</ele>
        <time>2019-04-16T12:17:24Z</time>
      </trkpt>
      <trkpt lat="59.995747147885" lon="15.789364813889">
        <ele>90.8</ele>
        <time>2019-04-16T12:17:28Z</time>
      </trkpt>
      <trkpt lat="59.995725103488" lon="15.789384176078">
        <ele>90.6</ele>
        <time>2019-04-16T12:17:31Z</time>
      </trkpt>
      <trkpt lat="59.995708004412" lon="15.789422229904">
        <ele>90.6</ele>
        <time>2019-04-16T12:17:33Z</time>
      </trkpt>
      <trkpt lat="59.995613708037" lon="15.789558435779">
        <ele>90.6</ele>
        <time>2019-04-16T12:17:39Z</time>
      </trkpt>
      <trkpt lat="59.995511281219" lon="15.789730935281">
        <ele>90.6</ele>
        <time>2019-04-16T12:17:45Z</time>
      </trkpt>
      <trkpt lat="59.995383373425" lon="15.789909302113">
        <ele>90.6</ele>
        <time>2019-04-16T12:17:51Z</time>
      </trkpt>
      <trkpt lat="59.995246245541" lon="15.790076604837">
        <ele>90.8</ele>
        <time>2019-04-16T12:17:57Z</time>
      </trkpt>
      <trkpt lat="59.995101406309" lon="15.790190766315">
        <ele>90.4</ele>
        <time>2019-04-16T12:18:03Z</time>
      </trkpt>
      <trkpt lat="59.994930667006" lon="15.790383298558">
        <ele>90.8</ele>
        <time>2019-04-16T12:18:09Z</time>
      </trkpt>
      <trkpt lat="59.994767555232" lon="15.790521683727">
        <ele>90.8</ele>
        <time>2019-04-16T12:18:15Z</time>
      </trkpt>
      <trkpt lat="59.994597989395" lon="15.790698541817">
        <ele>90.8</ele>
        <time>2019-04-16T12:18:21Z</time>
      </trkpt>
      <trkpt lat="59.994482067718" lon="15.790826449611">
        <ele>91.2</ele>
        <time>2019-04-16T12:18:27Z</time>
      </trkpt>
      <trkpt lat="59.994365056394" lon="15.79090532329">
        <ele>90.8</ele>
        <time>2019-04-16T12:18:33Z</time>
      </trkpt>
      <trkpt lat="59.994198675679" lon="15.791057538594">
        <ele>90.2</ele>
        <time>2019-04-16T12:18:39Z</time>
      </trkpt>
      <trkpt lat="59.994080490889" lon="15.791213022839">
        <ele>88.6</ele>
        <time>2019-04-16T12:18:45Z</time>
      </trkpt>
      <trkpt lat="59.993954930027" lon="15.791341014452">
        <ele>90.8</ele>
        <time>2019-04-16T12:18:51Z</time>
      </trkpt>
      <trkpt lat="59.993911763242" lon="15.791396334992">
        <ele>89.4</ele>
        <time>2019-04-16T12:18:53Z</time>
      </trkpt>
      <trkpt lat="59.993739431378" lon="15.791608145605">
        <ele>88.8</ele>
        <time>2019-04-16T12:18:59Z</time>
      </trkpt>
      <trkpt lat="59.99364790103" lon="15.79168232542">
        <ele>88.2</ele>
        <time>2019-04-16T12:19:02Z</time>
      </trkpt>
      <trkpt lat="59.993473976605" lon="15.791796403079">
        <ele>88.2</ele>
        <time>2019-04-16T12:19:07Z</time>
      </trkpt>
      <trkpt lat="59.99334363806" lon="15.791956162093">
        <ele>88.8</ele>
        <time>2019-04-16T12:19:13Z</time>
      </trkpt>
      <trkpt lat="59.993272475729" lon="15.792046435156">
        <ele>89.2</ele>
        <time>2019-04-16T12:19:17Z</time>
      </trkpt>
      <trkpt lat="59.99317851463" lon="15.792186999619">
        <ele>90.4</ele>
        <time>2019-04-16T12:19:21Z</time>
      </trkpt>
      <trkpt lat="59.993025209679" lon="15.792359834397">
        <ele>91</ele>
        <time>2019-04-16T12:19:27Z</time>
      </trkpt>
      <trkpt lat="59.992975840288" lon="15.792391853255">
        <ele>91.4</ele>
        <time>2019-04-16T12:19:29Z</time>
      </trkpt>
      <trkpt lat="59.992857823136" lon="15.792503919258">
        <ele>92.4</ele>
        <time>2019-04-16T12:19:35Z</time>
      </trkpt>
      <trkpt lat="59.992726311125" lon="15.792632413785">
        <ele>93.2</ele>
        <time>2019-04-16T12:19:41Z</time>
      </trkpt>
      <trkpt lat="59.992604438299" lon="15.792763003787">
        <ele>93</ele>
        <time>2019-04-16T12:19:47Z</time>
      </trkpt>
      <trkpt lat="59.992464795845" lon="15.792898706748">
        <ele>93.2</ele>
        <time>2019-04-16T12:19:53Z</time>
      </trkpt>
      <trkpt lat="59.992401093405" lon="15.792986297603">
        <ele>93.6</ele>
        <time>2019-04-16T12:19:56Z</time>
      </trkpt>
      <trkpt lat="59.99233613368" lon="15.79303767865">
        <ele>91.8</ele>
        <time>2019-04-16T12:19:59Z</time>
      </trkpt>
      <trkpt lat="59.992231779025" lon="15.793134489595">
        <ele>92.8</ele>
        <time>2019-04-16T12:20:04Z</time>
      </trkpt>
      <trkpt lat="59.992210572818" lon="15.793155947259">
        <ele>94.8</ele>
        <time>2019-04-16T12:20:05Z</time>
      </trkpt>
      <trkpt lat="59.992188863697" lon="15.793189307221">
        <ele>93.4</ele>
        <time>2019-04-16T12:20:07Z</time>
      </trkpt>
      <trkpt lat="59.992156006649" lon="15.793237419327">
        <ele>93.2</ele>
        <time>2019-04-16T12:20:09Z</time>
      </trkpt>
      <trkpt lat="59.992039917334" lon="15.793378319066">
        <ele>93.2</ele>
        <time>2019-04-16T12:20:15Z</time>
      </trkpt>
      <trkpt lat="59.991904884925" lon="15.793566325083">
        <ele>92.6</ele>
        <time>2019-04-16T12:20:21Z</time>
      </trkpt>
      <trkpt lat="59.991757028209" lon="15.793721725509">
        <ele>92.6</ele>
        <time>2019-04-16T12:20:27Z</time>
      </trkpt>
      <trkpt lat="59.99172090222" lon="15.793764137923">
        <ele>92.4</ele>
        <time>2019-04-16T12:20:28Z</time>
      </trkpt>
      <trkpt lat="59.991543038302" lon="15.793892297174">
        <ele>91.6</ele>
        <time>2019-04-16T12:20:33Z</time>
      </trkpt>
      <trkpt lat="59.991500542069" lon="15.793942840031">
        <ele>91.2</ele>
        <time>2019-04-16T12:20:34Z</time>
      </trkpt>
      <trkpt lat="59.991307926007" lon="15.794083907408">
        <ele>90.4</ele>
        <time>2019-04-16T12:20:40Z</time>
      </trkpt>
      <trkpt lat="59.991270039819" lon="15.794106789995">
        <ele>90.2</ele>
        <time>2019-04-16T12:20:41Z</time>
      </trkpt>
      <trkpt lat="59.991100138706" lon="15.794235703617">
        <ele>90.6</ele>
        <time>2019-04-16T12:20:47Z</time>
      </trkpt>
      <trkpt lat="59.990962004994" lon="15.794325641404">
        <ele>91</ele>
        <time>2019-04-16T12:20:53Z</time>
      </trkpt>
      <trkpt lat="59.990915233992" lon="15.794361935031">
        <ele>91.2</ele>
        <time>2019-04-16T12:20:55Z</time>
      </trkpt>
      <trkpt lat="59.990744494689" lon="15.794517754552">
        <ele>91.8</ele>
        <time>2019-04-16T12:21:01Z</time>
      </trkpt>
      <trkpt lat="59.990577946336" lon="15.794709280967">
        <ele>90.6</ele>
        <time>2019-04-16T12:21:07Z</time>
      </trkpt>
      <trkpt lat="59.990528660764" lon="15.794774156873">
        <ele>92.8</ele>
        <time>2019-04-16T12:21:09Z</time>
      </trkpt>
      <trkpt lat="59.99051223224" lon="15.794800056944">
        <ele>91.8</ele>
        <time>2019-04-16T12:21:10Z</time>
      </trkpt>
      <trkpt lat="59.990490774576" lon="15.794822101341">
        <ele>90.6</ele>
        <time>2019-04-16T12:21:11Z</time>
      </trkpt>
      <trkpt lat="59.990348869009" lon="15.794932323326">
        <ele>90.2</ele>
        <time>2019-04-16T12:21:17Z</time>
      </trkpt>
      <trkpt lat="59.990307043328" lon="15.794978591414">
        <ele>89.6</ele>
        <time>2019-04-16T12:21:19Z</time>
      </trkpt>
      <trkpt lat="59.990192798031" lon="15.795105325742">
        <ele>89</ele>
        <time>2019-04-16T12:21:25Z</time>
      </trkpt>
      <trkpt lat="59.990075702888" lon="15.795177326263">
        <ele>89.8</ele>
        <time>2019-04-16T12:21:31Z</time>
      </trkpt>
      <trkpt lat="59.989908316345" lon="15.795366757203">
        <ele>90</ele>
        <time>2019-04-16T12:21:36Z</time>
      </trkpt>
      <trkpt lat="59.989732631721" lon="15.795536658316">
        <ele>89.6</ele>
        <time>2019-04-16T12:21:41Z</time>
      </trkpt>
      <trkpt lat="59.989567089196" lon="15.79566875706">
        <ele>88.4</ele>
        <time>2019-04-16T12:21:47Z</time>
      </trkpt>
      <trkpt lat="59.989434403719" lon="15.795816446138">
        <ele>89.2</ele>
        <time>2019-04-16T12:21:53Z</time>
      </trkpt>
      <trkpt lat="59.989417220824" lon="15.795840753648">
        <ele>89.4</ele>
        <time>2019-04-16T12:21:54Z</time>
      </trkpt>
      <trkpt lat="59.989261988036" lon="15.795998752463">
        <ele>88.8</ele>
        <time>2019-04-16T12:22:00Z</time>
      </trkpt>
      <trkpt lat="59.98907138363" lon="15.79616999468">
        <ele>89.2</ele>
        <time>2019-04-16T12:22:05Z</time>
      </trkpt>
      <trkpt lat="59.988891508056" lon="15.796332854997">
        <ele>90</ele>
        <time>2019-04-16T12:22:11Z</time>
      </trkpt>
      <trkpt lat="59.988688079343" lon="15.796440981507">
        <ele>89.4</ele>
        <time>2019-04-16T12:22:17Z</time>
      </trkpt>
      <trkpt lat="59.988523375008" lon="15.796638878166">
        <ele>89.6</ele>
        <time>2019-04-16T12:22:22Z</time>
      </trkpt>
      <trkpt lat="59.988413739756" lon="15.796752872006">
        <ele>89.8</ele>
        <time>2019-04-16T12:22:25Z</time>
      </trkpt>
      <trkpt lat="59.988366633478" lon="15.796800900293">
        <ele>89.8</ele>
        <time>2019-04-16T12:22:27Z</time>
      </trkpt>
      <trkpt lat="59.988308211635" lon="15.796843983259">
        <ele>90.8</ele>
        <time>2019-04-16T12:22:30Z</time>
      </trkpt>
      <trkpt lat="59.988288681808" lon="15.796840881956">
        <ele>90.8</ele>
        <time>2019-04-16T12:22:32Z</time>
      </trkpt>
      <trkpt lat="59.988270744542" lon="15.796857394299">
        <ele>90.8</ele>
        <time>2019-04-16T12:22:34Z</time>
      </trkpt>
      <trkpt lat="59.988203940799" lon="15.796943560231">
        <ele>90.8</ele>
        <time>2019-04-16T12:22:40Z</time>
      </trkpt>
      <trkpt lat="59.98816697662" lon="15.79696795156">
        <ele>90.8</ele>
        <time>2019-04-16T12:22:42Z</time>
      </trkpt>
      <trkpt lat="59.988055916445" lon="15.797003239359">
        <ele>90.8</ele>
        <time>2019-04-16T12:22:48Z</time>
      </trkpt>
      <trkpt lat="59.987959692233" lon="15.796962251868">
        <ele>91.4</ele>
        <time>2019-04-16T12:22:54Z</time>
      </trkpt>
      <trkpt lat="59.987867575152" lon="15.796862842534">
        <ele>91.8</ele>
        <time>2019-04-16T12:23:00Z</time>
      </trkpt>
      <trkpt lat="59.987863970935" lon="15.796839205576">
        <ele>91.8</ele>
        <time>2019-04-16T12:23:01Z</time>
      </trkpt>
      <trkpt lat="59.987851230447" lon="15.796806851442">
        <ele>91.8</ele>
        <time>2019-04-16T12:23:03Z</time>
      </trkpt>
      <trkpt lat="59.987835221018" lon="15.796782041018">
        <ele>92</ele>
        <time>2019-04-16T12:23:05Z</time>
      </trkpt>
      <trkpt lat="59.987813511897" lon="15.796665532608">
        <ele>92.2</ele>
        <time>2019-04-16T12:23:11Z</time>
      </trkpt>
      <trkpt lat="59.987808566576" lon="15.796655055233">
        <ele>92.2</ele>
        <time>2019-04-16T12:23:12Z</time>
      </trkpt>
      <trkpt lat="59.987771267121" lon="15.796598812684">
        <ele>92.4</ele>
        <time>2019-04-16T12:23:17Z</time>
      </trkpt>
      <trkpt lat="59.987739164444" lon="15.796555729718">
        <ele>92.4</ele>
        <time>2019-04-16T12:23:20Z</time>
      </trkpt>
      <trkpt lat="59.987708067595" lon="15.796521783023">
        <ele>92.4</ele>
        <time>2019-04-16T12:23:23Z</time>
      </trkpt>
      <trkpt lat="59.987679652954" lon="15.796462355352">
        <ele>93</ele>
        <time>2019-04-16T12:23:26Z</time>
      </trkpt>
      <trkpt lat="59.98762047674" lon="15.796355486127">
        <ele>93.6</ele>
        <time>2019-04-16T12:23:32Z</time>
      </trkpt>
      <trkpt lat="59.987585943312" lon="15.796337297404">
        <ele>94</ele>
        <time>2019-04-16T12:23:35Z</time>
      </trkpt>
      <trkpt lat="59.987557780128" lon="15.79629991413">
        <ele>94.4</ele>
        <time>2019-04-16T12:23:39Z</time>
      </trkpt>
      <trkpt lat="59.987543279441" lon="15.796279462294">
        <ele>94.6</ele>
        <time>2019-04-16T12:23:41Z</time>
      </trkpt>
      <trkpt lat="59.987504722701" lon="15.796290023488">
        <ele>94.8</ele>
        <time>2019-04-16T12:23:43Z</time>
      </trkpt>
      <trkpt lat="59.987486114883" lon="15.796271667127">
        <ele>95</ele>
        <time>2019-04-16T12:23:44Z</time>
      </trkpt>
      <trkpt lat="59.987421658072" lon="15.796194553647">
        <ele>95.2</ele>
        <time>2019-04-16T12:23:50Z</time>
      </trkpt>
      <trkpt lat="59.987367846274" lon="15.796118613633">
        <ele>95.8</ele>
        <time>2019-04-16T12:23:54Z</time>
      </trkpt>
      <trkpt lat="59.987353429406" lon="15.796033537348">
        <ele>96</ele>
        <time>2019-04-16T12:23:57Z</time>
      </trkpt>
      <trkpt lat="59.987334905407" lon="15.795909401409">
        <ele>96</ele>
        <time>2019-04-16T12:24:02Z</time>
      </trkpt>
      <trkpt lat="59.987316129951" lon="15.795845196055">
        <ele>96.2</ele>
        <time>2019-04-16T12:24:05Z</time>
      </trkpt>
      <trkpt lat="59.987307412775" lon="15.795803621831">
        <ele>96.4</ele>
        <time>2019-04-16T12:24:07Z</time>
      </trkpt>
      <trkpt lat="59.987289475509" lon="15.795759365399">
        <ele>96.6</ele>
        <time>2019-04-16T12:24:10Z</time>
      </trkpt>
      <trkpt lat="59.987283691998" lon="15.795717036804">
        <ele>96.8</ele>
        <time>2019-04-16T12:24:12Z</time>
      </trkpt>
      <trkpt lat="59.987271202967" lon="15.795674875847">
        <ele>97</ele>
        <time>2019-04-16T12:24:14Z</time>
      </trkpt>
      <trkpt lat="59.98723323296" lon="15.795631373786">
        <ele>97</ele>
        <time>2019-04-16T12:24:17Z</time>
      </trkpt>
      <trkpt lat="59.98708906428" lon="15.795437668077">
        <ele>97.4</ele>
        <time>2019-04-16T12:24:27Z</time>
      </trkpt>
      <trkpt lat="59.98703206736" lon="15.795370612877">
        <ele>98</ele>
        <time>2019-04-16T12:24:30Z</time>
      </trkpt>
      <trkpt lat="59.986903656652" lon="15.795206327637">
        <ele>98.4</ele>
        <time>2019-04-16T12:24:36Z</time>
      </trkpt>
      <trkpt lat="59.98682335805" lon="15.795154611314">
        <ele>98.6</ele>
        <time>2019-04-16T12:24:39Z</time>
      </trkpt>
      <trkpt lat="59.986701652862" lon="15.795151761468">
        <ele>99.2</ele>
        <time>2019-04-16T12:24:44Z</time>
      </trkpt>
      <trkpt lat="59.986570895222" lon="15.795205824723">
        <ele>99</ele>
        <time>2019-04-16T12:24:50Z</time>
      </trkpt>
      <trkpt lat="59.986435108442" lon="15.795294253768">
        <ele>98.6</ele>
        <time>2019-04-16T12:24:56Z</time>
      </trkpt>
      <trkpt lat="59.98633804604" lon="15.795366673384">
        <ele>98.2</ele>
        <time>2019-04-16T12:25:02Z</time>
      </trkpt>
      <trkpt lat="59.986322539525" lon="15.79538293427">
        <ele>98</ele>
        <time>2019-04-16T12:25:03Z</time>
      </trkpt>
      <trkpt lat="59.986162612873" lon="15.795564402405">
        <ele>97.2</ele>
        <time>2019-04-16T12:25:09Z</time>
      </trkpt>
      <trkpt lat="59.986092624008" lon="15.795633217804">
        <ele>97</ele>
        <time>2019-04-16T12:25:12Z</time>
      </trkpt>
      <trkpt lat="59.985947952414" lon="15.795760035951">
        <ele>96.8</ele>
        <time>2019-04-16T12:25:18Z</time>
      </trkpt>
      <trkpt lat="59.985815266937" lon="15.795885261537">
        <ele>95.8</ele>
        <time>2019-04-16T12:25:23Z</time>
      </trkpt>
      <trkpt lat="59.985651400792" lon="15.796037895936">
        <ele>95.8</ele>
        <time>2019-04-16T12:25:29Z</time>
      </trkpt>
      <trkpt lat="59.985520224057" lon="15.796158762934">
        <ele>96</ele>
        <time>2019-04-16T12:25:35Z</time>
      </trkpt>
      <trkpt lat="59.985385191648" lon="15.79626973929">
        <ele>96</ele>
        <time>2019-04-16T12:25:41Z</time>
      </trkpt>
      <trkpt lat="59.985261223347" lon="15.796383146397">
        <ele>95.8</ele>
        <time>2019-04-16T12:25:47Z</time>
      </trkpt>
      <trkpt lat="59.985126107119" lon="15.79650778525">
        <ele>96</ele>
        <time>2019-04-16T12:25:53Z</time>
      </trkpt>
      <trkpt lat="59.98496760539" lon="15.796625886221">
        <ele>96.4</ele>
        <time>2019-04-16T12:25:59Z</time>
      </trkpt>
      <trkpt lat="59.98482678947" lon="15.796744825382">
        <ele>96.2</ele>
        <time>2019-04-16T12:26:05Z</time>
      </trkpt>
      <trkpt lat="59.984716735123" lon="15.796947080629">
        <ele>96.2</ele>
        <time>2019-04-16T12:26:11Z</time>
      </trkpt>
      <trkpt lat="59.984619169807" lon="15.797226365537">
        <ele>96.4</ele>
        <time>2019-04-16T12:26:17Z</time>
      </trkpt>
      <trkpt lat="59.98459544903" lon="15.797314710763">
        <ele>96.2</ele>
        <time>2019-04-16T12:26:19Z</time>
      </trkpt>
      <trkpt lat="59.984514228419" lon="15.797592235472">
        <ele>95.4</ele>
        <time>2019-04-16T12:26:25Z</time>
      </trkpt>
      <trkpt lat="59.984435857654" lon="15.797819301143">
        <ele>94.8</ele>
        <time>2019-04-16T12:26:30Z</time>
      </trkpt>
      <trkpt lat="59.984308620412" lon="15.798034632154">
        <ele>94.6</ele>
        <time>2019-04-16T12:26:36Z</time>
      </trkpt>
      <trkpt lat="59.984132265236" lon="15.797899515926">
        <ele>95</ele>
        <time>2019-04-16T12:26:42Z</time>
      </trkpt>
      <trkpt lat="59.983971416575" lon="15.797735817419">
        <ele>95.4</ele>
        <time>2019-04-16T12:26:48Z</time>
      </trkpt>
      <trkpt lat="59.983806125507" lon="15.797569436704">
        <ele>95</ele>
        <time>2019-04-16T12:26:54Z</time>
      </trkpt>
      <trkpt lat="59.983634380376" lon="15.797375228081">
        <ele>95.6</ele>
        <time>2019-04-16T12:27:00Z</time>
      </trkpt>
      <trkpt lat="59.9834915528" lon="15.7972579653">
        <ele>96</ele>
        <time>2019-04-16T12:27:05Z</time>
      </trkpt>
      <trkpt lat="59.983384096842" lon="15.797165093848">
        <ele>97.4</ele>
        <time>2019-04-16T12:27:09Z</time>
      </trkpt>
      <trkpt lat="59.983229869882" lon="15.796970130854">
        <ele>97.8</ele>
        <time>2019-04-16T12:27:15Z</time>
      </trkpt>
      <trkpt lat="59.983036667087" lon="15.79677935881">
        <ele>98.4</ele>
        <time>2019-04-16T12:27:21Z</time>
      </trkpt>
      <trkpt lat="59.98291655446" lon="15.796640806003">
        <ele>99.4</ele>
        <time>2019-04-16T12:27:25Z</time>
      </trkpt>
      <trkpt lat="59.982788059933" lon="15.796410136115">
        <ele>100.2</ele>
        <time>2019-04-16T12:27:31Z</time>
      </trkpt>
      <trkpt lat="59.982739025818" lon="15.796331262436">
        <ele>100.6</ele>
        <time>2019-04-16T12:27:33Z</time>
      </trkpt>
      <trkpt lat="59.982635593172" lon="15.796165887549">
        <ele>101.6</ele>
        <time>2019-04-16T12:27:37Z</time>
      </trkpt>
      <trkpt lat="59.982476923805" lon="15.795937648412">
        <ele>102.4</ele>
        <time>2019-04-16T12:27:43Z</time>
      </trkpt>
      <trkpt lat="59.982411377347" lon="15.795821642916">
        <ele>102.4</ele>
        <time>2019-04-16T12:27:49Z</time>
      </trkpt>
      <trkpt lat="59.982294449842" lon="15.795597762367">
        <ele>102.8</ele>
        <time>2019-04-16T12:27:55Z</time>
      </trkpt>
      <trkpt lat="59.982175343043" lon="15.795331972318">
        <ele>102.4</ele>
        <time>2019-04-16T12:28:01Z</time>
      </trkpt>
      <trkpt lat="59.982054140769" lon="15.795076827282">
        <ele>102.6</ele>
        <time>2019-04-16T12:28:07Z</time>
      </trkpt>
      <trkpt lat="59.981952803598" lon="15.794792261777">
        <ele>102.4</ele>
        <time>2019-04-16T12:28:13Z</time>
      </trkpt>
      <trkpt lat="59.981842749251" lon="15.794517335457">
        <ele>102.2</ele>
        <time>2019-04-16T12:28:19Z</time>
      </trkpt>
      <trkpt lat="59.981788853634" lon="15.794375178433">
        <ele>101.6</ele>
        <time>2019-04-16T12:28:22Z</time>
      </trkpt>
      <trkpt lat="59.981673937785" lon="15.794091618756">
        <ele>101.2</ele>
        <time>2019-04-16T12:28:28Z</time>
      </trkpt>
      <trkpt lat="59.981563129067" lon="15.793797330247">
        <ele>100.6</ele>
        <time>2019-04-16T12:28:34Z</time>
      </trkpt>
      <trkpt lat="59.981547287276" lon="15.793746284476">
        <ele>100.6</ele>
        <time>2019-04-16T12:28:35Z</time>
      </trkpt>
      <trkpt lat="59.981520632834" lon="15.793360717076">
        <ele>100</ele>
        <time>2019-04-16T12:28:41Z</time>
      </trkpt>
      <trkpt lat="59.981585844016" lon="15.793056789382">
        <ele>99.4</ele>
        <time>2019-04-16T12:28:46Z</time>
      </trkpt>
      <trkpt lat="59.981723642452" lon="15.792806505848">
        <ele>99.2</ele>
        <time>2019-04-16T12:28:51Z</time>
      </trkpt>
      <trkpt lat="59.981928999002" lon="15.792632497604">
        <ele>99.6</ele>
        <time>2019-04-16T12:28:56Z</time>
      </trkpt>
      <trkpt lat="59.982117088838" lon="15.792423453018">
        <ele>100.6</ele>
        <time>2019-04-16T12:29:01Z</time>
      </trkpt>
      <trkpt lat="59.982149862067" lon="15.792391685617">
        <ele>100.6</ele>
        <time>2019-04-16T12:29:02Z</time>
      </trkpt>
      <trkpt lat="59.982264526459" lon="15.792257910493">
        <ele>100.6</ele>
        <time>2019-04-16T12:29:07Z</time>
      </trkpt>
    </trkseg>
  </trk>
</gpx>